sensor_id;sensor_type;location;lat;lon;timestamp;pressure;altitude;pressure_sealevel;temperature;humidity
42335;BME280;27986;42.700;24.178;2023-02-28T00:00:31;94328.78;;;7.93;100.00
42335;BME280;27986;42.700;24.178;2023-02-28T00:02:57;94287.84;;;7.81;100.00
42335;BME280;27986;42.700;24.178;2023-02-28T00:05:24;94360.91;;;8.24;100.00
42335;BME280;27986;42.700;24.178;2023-02-28T00:07:50;94371.03;;;8.47;100.00
42335;BME280;27986;42.700;24.178;2023-02-28T00:10:24;94376.19;;;8.54;100.00
42335;BME280;27986;42.700;24.178;2023-02-28T00:12:51;94336.88;;;8.17;100.00
42335;BME280;27986;42.700;24.178;2023-02-28T00:15:17;94324.00;;;8.05;100.00
42335;BME280;27986;42.700;24.178;2023-02-28T00:17:43;94308.94;;;8.02;100.00
42335;BME280;27986;42.700;24.178;2023-02-28T00:20:09;94304.03;;;7.97;100.00
42335;BME280;27986;42.700;24.178;2023-02-28T00:22:45;94325.94;;;8.25;100.00
42335;BME280;27986;42.700;24.178;2023-02-28T00:25:13;94337.25;;;8.36;100.00
42335;BME280;27986;42.700;24.178;2023-02-28T00:27:40;94348.50;;;8.36;100.00
42335;BME280;27986;42.700;24.178;2023-02-28T00:30:08;94372.19;;;7.98;100.00
42335;BME280;27986;42.700;24.178;2023-02-28T00:32:34;94331.13;;;7.69;100.00
42335;BME280;27986;42.700;24.178;2023-02-28T00:35:00;94346.38;;;7.62;100.00
42335;BME280;27986;42.700;24.178;2023-02-28T00:37:25;94338.47;;;7.92;100.00
42335;BME280;27986;42.700;24.178;2023-02-28T00:39:51;94365.66;;;8.12;100.00
42335;BME280;27986;42.700;24.178;2023-02-28T00:42:17;94330.22;;;7.83;100.00
42335;BME280;27986;42.700;24.178;2023-02-28T00:44:42;94352.84;;;8.05;100.00
42335;BME280;27986;42.700;24.178;2023-02-28T00:47:08;94327.44;;;7.88;100.00
42335;BME280;27986;42.700;24.178;2023-02-28T00:49:33;94361.19;;;7.62;100.00
42335;BME280;27986;42.700;24.178;2023-02-28T00:51:59;94307.22;;;7.21;100.00
42335;BME280;27986;42.700;24.178;2023-02-28T00:54:24;94325.53;;;7.17;100.00
42335;BME280;27986;42.700;24.178;2023-02-28T00:56:50;94279.59;;;6.88;100.00
42335;BME280;27986;42.700;24.178;2023-02-28T00:59:16;94330.22;;;7.51;100.00
42335;BME280;27986;42.700;24.178;2023-02-28T01:01:43;94259.69;;;7.07;100.00
42335;BME280;27986;42.700;24.178;2023-02-28T01:04:09;94248.66;;;7.03;100.00
42335;BME280;27986;42.700;24.178;2023-02-28T01:06:34;94237.56;;;6.88;100.00
42335;BME280;27986;42.700;24.178;2023-02-28T01:09:01;94285.34;;;7.25;100.00
42335;BME280;27986;42.700;24.178;2023-02-28T01:11:26;94336.41;;;7.61;100.00
42335;BME280;27986;42.700;24.178;2023-02-28T01:13:52;94329.66;;;7.47;100.00
42335;BME280;27986;42.700;24.178;2023-02-28T01:16:17;94230.97;;;6.91;100.00
42335;BME280;27986;42.700;24.178;2023-02-28T01:18:43;94248.78;;;6.88;100.00
42335;BME280;27986;42.700;24.178;2023-02-28T01:21:13;94302.66;;;7.50;100.00
42335;BME280;27986;42.700;24.178;2023-02-28T01:23:40;94273.44;;;7.36;100.00
42335;BME280;27986;42.700;24.178;2023-02-28T01:26:07;94312.84;;;7.79;100.00
42335;BME280;27986;42.700;24.178;2023-02-28T01:28:33;94311.34;;;7.83;100.00
42335;BME280;27986;42.700;24.178;2023-02-28T01:30:59;94274.16;;;7.57;100.00
42335;BME280;27986;42.700;24.178;2023-02-28T01:33:24;94296.50;;;7.77;100.00
42335;BME280;27986;42.700;24.178;2023-02-28T01:35:58;94288.53;;;7.70;100.00
42335;BME280;27986;42.700;24.178;2023-02-28T01:38:23;94222.75;;;7.14;100.00
42335;BME280;27986;42.700;24.178;2023-02-28T01:40:49;94298.78;;;7.47;100.00
42335;BME280;27986;42.700;24.178;2023-02-28T01:43:24;94224.63;;;7.22;100.00
42335;BME280;27986;42.700;24.178;2023-02-28T01:45:51;94241.56;;;7.33;100.00
42335;BME280;27986;42.700;24.178;2023-02-28T01:48:17;94232.81;;;7.26;100.00
42335;BME280;27986;42.700;24.178;2023-02-28T01:50:45;94257.94;;;7.41;100.00
42335;BME280;27986;42.700;24.178;2023-02-28T01:53:15;94294.09;;;7.65;100.00
42335;BME280;27986;42.700;24.178;2023-02-28T01:55:46;94297.97;;;7.73;100.00
42335;BME280;27986;42.700;24.178;2023-02-28T01:58:12;94250.91;;;7.56;100.00
42335;BME280;27986;42.700;24.178;2023-02-28T02:00:38;94250.69;;;7.60;100.00
42335;BME280;27986;42.700;24.178;2023-02-28T02:03:10;94255.22;;;7.52;100.00
42335;BME280;27986;42.700;24.178;2023-02-28T02:05:39;94247.97;;;7.40;100.00
42335;BME280;27986;42.700;24.178;2023-02-28T02:08:10;94262.69;;;7.60;100.00
42335;BME280;27986;42.700;24.178;2023-02-28T02:11:01;94252.91;;;7.87;100.00
42335;BME280;27986;42.700;24.178;2023-02-28T02:21:57;94275.50;;;8.47;100.00
42335;BME280;27986;42.700;24.178;2023-02-28T02:32:44;94291.16;;;8.16;100.00
42335;BME280;27986;42.700;24.178;2023-02-28T02:35:31;94231.09;;;7.66;100.00
42335;BME280;27986;42.700;24.178;2023-02-28T02:38:11;94250.91;;;7.56;100.00
42335;BME280;27986;42.700;24.178;2023-02-28T02:40:57;94236.47;;;7.32;100.00
42335;BME280;27986;42.700;24.178;2023-02-28T02:43:29;94279.69;;;7.83;100.00
42335;BME280;27986;42.700;24.178;2023-02-28T02:46:07;94215.38;;;7.48;100.00
42335;BME280;27986;42.700;24.178;2023-02-28T02:48:36;94270.72;;;7.79;100.00
42335;BME280;27986;42.700;24.178;2023-02-28T02:51:09;94204.03;;;7.62;100.00
42335;BME280;27986;42.700;24.178;2023-02-28T02:54:02;94294.16;;;8.44;100.00
42335;BME280;27986;42.700;24.178;2023-02-28T02:56:30;94293.69;;;8.57;99.89
42335;BME280;27986;42.700;24.178;2023-02-28T02:59:00;94255.38;;;8.11;99.70
42335;BME280;27986;42.700;24.178;2023-02-28T03:01:27;94304.34;;;8.05;100.00
42335;BME280;27986;42.700;24.178;2023-02-28T03:03:59;94294.63;;;8.00;100.00
42335;BME280;27986;42.700;24.178;2023-02-28T03:06:26;94275.75;;;8.01;100.00
42335;BME280;27986;42.700;24.178;2023-02-28T03:08:52;94281.88;;;7.99;100.00
42335;BME280;27986;42.700;24.178;2023-02-28T03:11:18;94328.38;;;8.49;98.51
42335;BME280;27986;42.700;24.178;2023-02-28T03:22:00;94313.03;;;8.07;99.76
42335;BME280;27986;42.700;24.178;2023-02-28T03:27:20;94349.50;;;7.18;100.00
42335;BME280;27986;42.700;24.178;2023-02-28T03:30:04;94288.28;;;6.64;100.00
42335;BME280;27986;42.700;24.178;2023-02-28T03:35:39;94316.56;;;7.39;100.00
42335;BME280;27986;42.700;24.178;2023-02-28T03:38:20;94300.13;;;7.26;100.00
42335;BME280;27986;42.700;24.178;2023-02-28T03:40:50;94313.31;;;7.46;100.00
42335;BME280;27986;42.700;24.178;2023-02-28T03:43:24;94379.44;;;7.78;100.00
42335;BME280;27986;42.700;24.178;2023-02-28T03:45:51;94360.88;;;6.88;100.00
42335;BME280;27986;42.700;24.178;2023-02-28T03:48:37;94337.28;;;6.95;100.00
42335;BME280;27986;42.700;24.178;2023-02-28T03:51:07;94261.59;;;6.28;100.00
42335;BME280;27986;42.700;24.178;2023-02-28T03:53:39;94279.53;;;6.57;100.00
42335;BME280;27986;42.700;24.178;2023-02-28T03:56:12;94342.56;;;7.13;100.00
42335;BME280;27986;42.700;24.178;2023-02-28T04:01:30;94351.13;;;7.24;100.00
42335;BME280;27986;42.700;24.178;2023-02-28T04:03:57;94336.94;;;6.67;100.00
42335;BME280;27986;42.700;24.178;2023-02-28T04:06:23;94340.88;;;6.75;100.00
42335;BME280;27986;42.700;24.178;2023-02-28T04:08:49;94331.63;;;6.48;100.00
42335;BME280;27986;42.700;24.178;2023-02-28T04:11:20;94382.47;;;7.02;100.00
42335;BME280;27986;42.700;24.178;2023-02-28T04:13:46;94386.28;;;6.99;100.00
42335;BME280;27986;42.700;24.178;2023-02-28T04:16:11;94319.34;;;6.87;100.00
42335;BME280;27986;42.700;24.178;2023-02-28T04:18:41;94335.50;;;6.97;100.00
42335;BME280;27986;42.700;24.178;2023-02-28T04:21:09;94325.59;;;7.22;100.00
42335;BME280;27986;42.700;24.178;2023-02-28T04:23:35;94355.56;;;7.37;100.00
42335;BME280;27986;42.700;24.178;2023-02-28T04:26:00;94387.34;;;7.48;100.00
42335;BME280;27986;42.700;24.178;2023-02-28T04:28:26;94355.50;;;7.31;100.00
42335;BME280;27986;42.700;24.178;2023-02-28T04:31:01;94363.88;;;7.25;100.00
42335;BME280;27986;42.700;24.178;2023-02-28T04:33:30;94415.63;;;7.24;100.00
42335;BME280;27986;42.700;24.178;2023-02-28T04:36:06;94335.09;;;6.64;100.00
42335;BME280;27986;42.700;24.178;2023-02-28T04:38:34;94413.44;;;7.34;100.00
42335;BME280;27986;42.700;24.178;2023-02-28T04:41:00;94300.31;;;6.70;100.00
42335;BME280;27986;42.700;24.178;2023-02-28T04:43:27;94336.31;;;6.98;100.00
42335;BME280;27986;42.700;24.178;2023-02-28T04:45:53;94374.75;;;6.97;100.00
42335;BME280;27986;42.700;24.178;2023-02-28T04:48:23;94371.38;;;7.14;100.00
42335;BME280;27986;42.700;24.178;2023-02-28T04:50:48;94365.56;;;7.17;100.00
42335;BME280;27986;42.700;24.178;2023-02-28T04:53:14;94353.97;;;7.30;100.00
42335;BME280;27986;42.700;24.178;2023-02-28T04:55:39;94422.03;;;7.77;100.00
42335;BME280;27986;42.700;24.178;2023-02-28T04:58:05;94337.38;;;7.06;100.00
42335;BME280;27986;42.700;24.178;2023-02-28T05:00:30;94371.25;;;7.02;100.00
42335;BME280;27986;42.700;24.178;2023-02-28T05:02:57;94392.16;;;7.01;100.00
42335;BME280;27986;42.700;24.178;2023-02-28T05:05:22;94343.09;;;6.71;100.00
42335;BME280;27986;42.700;24.178;2023-02-28T05:07:48;94360.84;;;6.83;100.00
42335;BME280;27986;42.700;24.178;2023-02-28T05:10:14;94386.09;;;7.29;100.00
42335;BME280;27986;42.700;24.178;2023-02-28T05:12:40;94390.34;;;7.45;100.00
42335;BME280;27986;42.700;24.178;2023-02-28T05:15:05;94334.13;;;7.08;100.00
42335;BME280;27986;42.700;24.178;2023-02-28T05:17:31;94408.28;;;7.79;100.00
42335;BME280;27986;42.700;24.178;2023-02-28T05:19:56;94326.97;;;7.32;100.00
42335;BME280;27986;42.700;24.178;2023-02-28T05:22:22;94367.63;;;7.69;100.00
42335;BME280;27986;42.700;24.178;2023-02-28T05:24:47;94336.66;;;7.57;100.00
42335;BME280;27986;42.700;24.178;2023-02-28T05:27:13;94419.72;;;8.33;100.00
42335;BME280;27986;42.700;24.178;2023-02-28T05:29:39;94377.34;;;7.99;100.00
42335;BME280;27986;42.700;24.178;2023-02-28T05:32:10;94402.91;;;8.07;100.00
42335;BME280;27986;42.700;24.178;2023-02-28T05:34:37;94298.19;;;7.38;100.00
42335;BME280;27986;42.700;24.178;2023-02-28T05:37:03;94367.25;;;7.87;100.00
42335;BME280;27986;42.700;24.178;2023-02-28T05:39:29;94401.22;;;8.21;100.00
42335;BME280;27986;42.700;24.178;2023-02-28T05:41:54;94369.50;;;8.09;100.00
42335;BME280;27986;42.700;24.178;2023-02-28T05:44:20;94439.28;;;8.22;100.00
42335;BME280;27986;42.700;24.178;2023-02-28T05:46:45;94410.56;;;8.06;100.00
42335;BME280;27986;42.700;24.178;2023-02-28T05:49:11;94438.13;;;8.34;100.00
42335;BME280;27986;42.700;24.178;2023-02-28T05:51:36;94398.94;;;8.19;100.00
42335;BME280;27986;42.700;24.178;2023-02-28T05:54:05;94435.66;;;8.41;100.00
42335;BME280;27986;42.700;24.178;2023-02-28T05:56:31;94389.88;;;8.04;100.00
42335;BME280;27986;42.700;24.178;2023-02-28T05:58:57;94418.50;;;8.08;100.00
42335;BME280;27986;42.700;24.178;2023-02-28T06:01:42;94458.75;;;8.25;100.00
42335;BME280;27986;42.700;24.178;2023-02-28T06:04:13;94363.09;;;7.25;100.00
42335;BME280;27986;42.700;24.178;2023-02-28T06:06:46;94445.09;;;7.86;100.00
42335;BME280;27986;42.700;24.178;2023-02-28T06:09:12;94410.16;;;7.61;100.00
42335;BME280;27986;42.700;24.178;2023-02-28T06:11:40;94413.91;;;7.79;100.00
42335;BME280;27986;42.700;24.178;2023-02-28T06:14:15;94467.03;;;9.09;100.00
42335;BME280;27986;42.700;24.178;2023-02-28T06:16:42;94443.03;;;10.01;98.57
42335;BME280;27986;42.700;24.178;2023-02-28T06:19:08;94421.28;;;10.63;85.71
42335;BME280;27986;42.700;24.178;2023-02-28T06:21:34;94422.50;;;9.89;86.32
42335;BME280;27986;42.700;24.178;2023-02-28T06:24:00;94398.09;;;9.47;89.48
42335;BME280;27986;42.700;24.178;2023-02-28T06:26:26;94470.25;;;9.50;92.88
42335;BME280;27986;42.700;24.178;2023-02-28T06:28:52;94395.84;;;8.91;94.79
42335;BME280;27986;42.700;24.178;2023-02-28T07:15:23;94464.56;;;12.26;79.00
42335;BME280;27986;42.700;24.178;2023-02-28T07:17:48;94419.66;;;11.70;79.92
42335;BME280;27986;42.700;24.178;2023-02-28T07:20:14;94466.13;;;11.75;82.02
42335;BME280;27986;42.700;24.178;2023-02-28T07:22:39;94447.59;;;11.21;84.98
42335;BME280;27986;42.700;24.178;2023-02-28T07:25:05;94456.91;;;10.55;90.08
42335;BME280;27986;42.700;24.178;2023-02-28T07:27:31;94440.28;;;10.51;91.75
42335;BME280;27986;42.700;24.178;2023-02-28T07:29:56;94451.78;;;10.48;92.82
42335;BME280;27986;42.700;24.178;2023-02-28T07:32:22;94420.72;;;10.08;93.90
42335;BME280;27986;42.700;24.178;2023-02-28T07:34:48;94375.56;;;9.36;97.65
42335;BME280;27986;42.700;24.178;2023-02-28T07:37:14;94406.31;;;9.56;97.25
42335;BME280;27986;42.700;24.178;2023-02-28T07:39:39;94417.28;;;9.48;98.37
42335;BME280;27986;42.700;24.178;2023-02-28T07:42:07;94476.97;;;9.64;100.00
42335;BME280;27986;42.700;24.178;2023-02-28T07:44:36;94484.03;;;9.37;100.00
42335;BME280;27986;42.700;24.178;2023-02-28T07:47:07;94441.66;;;9.03;100.00
42335;BME280;27986;42.700;24.178;2023-02-28T07:49:34;94493.22;;;9.31;100.00
42335;BME280;27986;42.700;24.178;2023-02-28T07:52:00;94438.69;;;8.75;100.00
42335;BME280;27986;42.700;24.178;2023-02-28T07:54:25;94417.38;;;9.00;100.00
42335;BME280;27986;42.700;24.178;2023-02-28T07:56:51;94482.53;;;9.47;100.00
42335;BME280;27986;42.700;24.178;2023-02-28T07:59:18;94494.38;;;9.62;100.00
42335;BME280;27986;42.700;24.178;2023-02-28T08:01:44;94510.25;;;9.59;100.00
42335;BME280;27986;42.700;24.178;2023-02-28T08:04:09;94506.44;;;9.74;100.00
42335;BME280;27986;42.700;24.178;2023-02-28T08:06:35;94431.22;;;9.09;100.00
42335;BME280;27986;42.700;24.178;2023-02-28T08:09:00;94428.09;;;9.01;100.00
42335;BME280;27986;42.700;24.178;2023-02-28T08:11:26;94444.53;;;9.14;100.00
42335;BME280;27986;42.700;24.178;2023-02-28T08:13:51;94514.34;;;9.58;100.00
42335;BME280;27986;42.700;24.178;2023-02-28T08:16:17;94490.75;;;9.50;100.00
42335;BME280;27986;42.700;24.178;2023-02-28T08:18:48;94497.16;;;9.56;100.00
42335;BME280;27986;42.700;24.178;2023-02-28T08:21:14;94439.47;;;9.29;100.00
42335;BME280;27986;42.700;24.178;2023-02-28T08:23:39;94407.16;;;9.02;100.00
42335;BME280;27986;42.700;24.178;2023-02-28T08:26:04;94422.41;;;8.90;100.00
42335;BME280;27986;42.700;24.178;2023-02-28T08:28:30;94443.34;;;8.84;100.00
42335;BME280;27986;42.700;24.178;2023-02-28T08:30:56;94401.84;;;8.67;100.00
42335;BME280;27986;42.700;24.178;2023-02-28T08:33:22;94435.69;;;8.90;100.00
42335;BME280;27986;42.700;24.178;2023-02-28T08:35:48;94463.81;;;8.90;100.00
42335;BME280;27986;42.700;24.178;2023-02-28T08:38:13;94445.50;;;9.00;100.00
42335;BME280;27986;42.700;24.178;2023-02-28T08:40:38;94453.69;;;9.03;100.00
42335;BME280;27986;42.700;24.178;2023-02-28T08:43:04;94443.84;;;8.82;100.00
42335;BME280;27986;42.700;24.178;2023-02-28T08:45:32;94480.97;;;8.92;100.00
42335;BME280;27986;42.700;24.178;2023-02-28T08:47:58;94433.88;;;8.81;100.00
42335;BME280;27986;42.700;24.178;2023-02-28T08:50:23;94491.03;;;9.58;100.00
42335;BME280;27986;42.700;24.178;2023-02-28T08:52:49;94446.78;;;9.05;100.00
42335;BME280;27986;42.700;24.178;2023-02-28T08:55:14;94467.31;;;9.22;100.00
42335;BME280;27986;42.700;24.178;2023-02-28T08:57:40;94472.78;;;9.37;100.00
42335;BME280;27986;42.700;24.178;2023-02-28T09:00:06;94436.19;;;9.37;100.00
42335;BME280;27986;42.700;24.178;2023-02-28T09:02:33;94477.84;;;9.98;100.00
42335;BME280;27986;42.700;24.178;2023-02-28T09:04:58;94494.56;;;10.24;100.00
42335;BME280;27986;42.700;24.178;2023-02-28T09:07:24;94403.47;;;9.45;100.00
42335;BME280;27986;42.700;24.178;2023-02-28T09:09:50;94398.44;;;9.88;100.00
42335;BME280;27986;42.700;24.178;2023-02-28T09:12:26;94443.28;;;10.14;100.00
42335;BME280;27986;42.700;24.178;2023-02-28T09:14:51;94477.84;;;10.03;100.00
42335;BME280;27986;42.700;24.178;2023-02-28T09:17:17;94388.06;;;9.29;100.00
42335;BME280;27986;42.700;24.178;2023-02-28T09:19:43;94433.47;;;9.65;100.00
42335;BME280;27986;42.700;24.178;2023-02-28T09:22:09;94407.66;;;9.88;100.00
42335;BME280;27986;42.700;24.178;2023-02-28T09:24:36;94454.38;;;10.51;100.00
42335;BME280;27986;42.700;24.178;2023-02-28T09:27:02;94423.09;;;10.55;100.00
42335;BME280;27986;42.700;24.178;2023-02-28T09:29:27;94436.91;;;10.75;100.00
42335;BME280;27986;42.700;24.178;2023-02-28T09:31:53;94464.09;;;10.61;100.00
42335;BME280;27986;42.700;24.178;2023-02-28T09:34:18;94457.34;;;9.92;100.00
42335;BME280;27986;42.700;24.178;2023-02-28T09:36:44;94469.59;;;9.83;100.00
42335;BME280;27986;42.700;24.178;2023-02-28T09:39:10;94460.16;;;9.97;100.00
42335;BME280;27986;42.700;24.178;2023-02-28T09:41:43;94478.19;;;10.28;100.00
42335;BME280;27986;42.700;24.178;2023-02-28T09:44:37;94442.53;;;10.19;100.00
42335;BME280;27986;42.700;24.178;2023-02-28T09:47:21;94450.25;;;10.47;100.00
42335;BME280;27986;42.700;24.178;2023-02-28T09:49:51;94386.88;;;9.64;100.00
42335;BME280;27986;42.700;24.178;2023-02-28T09:52:19;94455.81;;;10.07;100.00
42335;BME280;27986;42.700;24.178;2023-02-28T09:54:45;94413.53;;;9.79;100.00
42335;BME280;27986;42.700;24.178;2023-02-28T10:02:49;94453.81;;;10.25;100.00
42335;BME280;27986;42.700;24.178;2023-02-28T10:05:25;94406.66;;;10.08;100.00
42335;BME280;27986;42.700;24.178;2023-02-28T10:10:29;94432.84;;;10.42;100.00
42335;BME280;27986;42.700;24.178;2023-02-28T10:13:00;94442.81;;;10.55;100.00
42335;BME280;27986;42.700;24.178;2023-02-28T10:15:31;94376.94;;;9.85;100.00
42335;BME280;27986;42.700;24.178;2023-02-28T10:18:01;94382.06;;;9.98;100.00
42335;BME280;27986;42.700;24.178;2023-02-28T10:20:31;94370.78;;;9.75;100.00
42335;BME280;27986;42.700;24.178;2023-02-28T10:23:21;94371.03;;;9.88;100.00
42335;BME280;27986;42.700;24.178;2023-02-28T10:26:12;94436.16;;;10.47;100.00
42335;BME280;27986;42.700;24.178;2023-02-28T10:28:38;94356.47;;;9.96;100.00
42335;BME280;27986;42.700;24.178;2023-02-28T10:31:04;94413.13;;;10.42;100.00
42335;BME280;27986;42.700;24.178;2023-02-28T10:33:33;94410.53;;;10.45;100.00
42335;BME280;27986;42.700;24.178;2023-02-28T10:36:00;94344.91;;;10.16;100.00
42335;BME280;27986;42.700;24.178;2023-02-28T10:38:28;94423.59;;;10.53;100.00
42335;BME280;27986;42.700;24.178;2023-02-28T10:43:29;94327.50;;;9.90;100.00
42335;BME280;27986;42.700;24.178;2023-02-28T10:46:02;94383.63;;;10.55;100.00
42335;BME280;27986;42.700;24.178;2023-02-28T10:48:32;94332.91;;;9.93;100.00
42335;BME280;27986;42.700;24.178;2023-02-28T10:50:59;94366.69;;;10.60;100.00
42335;BME280;27986;42.700;24.178;2023-02-28T10:53:37;94363.59;;;10.69;100.00
42335;BME280;27986;42.700;24.178;2023-02-28T10:56:29;94409.72;;;10.72;100.00
42335;BME280;27986;42.700;24.178;2023-02-28T10:59:30;94381.47;;;10.94;100.00
42335;BME280;27986;42.700;24.178;2023-02-28T11:02:00;94385.63;;;10.65;100.00
42335;BME280;27986;42.700;24.178;2023-02-28T11:07:03;94339.28;;;10.33;100.00
42335;BME280;27986;42.700;24.178;2023-02-28T11:09:38;94310.78;;;10.59;100.00
42335;BME280;27986;42.700;24.178;2023-02-28T11:12:07;94376.56;;;11.59;100.00
42335;BME280;27986;42.700;24.178;2023-02-28T11:14:42;94348.63;;;11.55;98.82
42335;BME280;27986;42.700;24.178;2023-02-28T11:17:15;94381.00;;;11.48;100.00
42335;BME280;27986;42.700;24.178;2023-02-28T11:19:47;94329.72;;;10.81;100.00
42335;BME280;27986;42.700;24.178;2023-02-28T11:22:20;94326.44;;;10.60;100.00
42335;BME280;27986;42.700;24.178;2023-02-28T11:24:50;94262.75;;;9.67;100.00
42335;BME280;27986;42.700;24.178;2023-02-28T11:28:02;94306.53;;;9.68;100.00
42335;BME280;27986;42.700;24.178;2023-02-28T11:30:36;94354.41;;;10.07;100.00
42335;BME280;27986;42.700;24.178;2023-02-28T11:33:37;94366.69;;;10.21;100.00
42335;BME280;27986;42.700;24.178;2023-02-28T11:36:09;94367.47;;;9.94;100.00
42335;BME280;27986;42.700;24.178;2023-02-28T11:38:36;94362.59;;;10.11;100.00
42335;BME280;27986;42.700;24.178;2023-02-28T11:46:41;94357.22;;;10.02;100.00
42335;BME280;27986;42.700;24.178;2023-02-28T11:55:07;94335.97;;;9.84;100.00
42335;BME280;27986;42.700;24.178;2023-02-28T12:04:25;94321.59;;;9.48;100.00
42335;BME280;27986;42.700;24.178;2023-02-28T12:07:01;94325.44;;;9.73;100.00
42335;BME280;27986;42.700;24.178;2023-02-28T12:17:39;94351.53;;;9.57;100.00
42335;BME280;27986;42.700;24.178;2023-02-28T12:28:25;94283.47;;;9.47;100.00
42335;BME280;27986;42.700;24.178;2023-02-28T12:30:59;94366.13;;;9.67;100.00
42335;BME280;27986;42.700;24.178;2023-02-28T12:33:31;94267.78;;;9.01;100.00
42335;BME280;27986;42.700;24.178;2023-02-28T12:36:02;94375.38;;;9.73;100.00
42335;BME280;27986;42.700;24.178;2023-02-28T12:38:34;94328.72;;;9.32;100.00
42335;BME280;27986;42.700;24.178;2023-02-28T12:41:14;94365.81;;;9.31;100.00
42335;BME280;27986;42.700;24.178;2023-02-28T12:43:48;94345.91;;;8.75;100.00
42335;BME280;27986;42.700;24.178;2023-02-28T12:46:24;94311.09;;;8.18;100.00
42335;BME280;27986;42.700;24.178;2023-02-28T12:48:56;94371.34;;;8.55;100.00
42335;BME280;27986;42.700;24.178;2023-02-28T12:51:24;94367.81;;;8.60;100.00
42335;BME280;27986;42.700;24.178;2023-02-28T12:59:22;94363.22;;;8.25;100.00
42335;BME280;27986;42.700;24.178;2023-02-28T13:04:53;94336.56;;;8.09;100.00
42335;BME280;27986;42.700;24.178;2023-02-28T13:08:03;94341.00;;;8.27;100.00
42335;BME280;27986;42.700;24.178;2023-02-28T13:13:14;94319.66;;;8.35;100.00
42335;BME280;27986;42.700;24.178;2023-02-28T13:15:40;94310.28;;;8.50;100.00
42335;BME280;27986;42.700;24.178;2023-02-28T13:18:45;94272.22;;;8.11;100.00
42335;BME280;27986;42.700;24.178;2023-02-28T13:21:27;94346.41;;;9.50;100.00
42335;BME280;27986;42.700;24.178;2023-02-28T13:34:27;94291.66;;;9.90;100.00
42335;BME280;27986;42.700;24.178;2023-02-28T13:39:55;94343.34;;;9.48;100.00
42335;BME280;27986;42.700;24.178;2023-02-28T13:47:29;94335.47;;;8.87;100.00
42335;BME280;27986;42.700;24.178;2023-02-28T13:58:36;94342.88;;;8.36;100.00
42335;BME280;27986;42.700;24.178;2023-02-28T14:04:06;94347.28;;;8.42;100.00
42335;BME280;27986;42.700;24.178;2023-02-28T14:06:38;94282.19;;;7.75;100.00
42335;BME280;27986;42.700;24.178;2023-02-28T14:09:24;94348.22;;;8.34;100.00
42335;BME280;27986;42.700;24.178;2023-02-28T14:11:51;94312.63;;;7.82;100.00
42335;BME280;27986;42.700;24.178;2023-02-28T14:17:04;94318.38;;;7.68;100.00
42335;BME280;27986;42.700;24.178;2023-02-28T14:19:34;94325.78;;;7.71;100.00
42335;BME280;27986;42.700;24.178;2023-02-28T14:27:27;94281.72;;;7.19;100.00
42335;BME280;27986;42.700;24.178;2023-02-28T14:30:05;94296.94;;;7.13;100.00
42335;BME280;27986;42.700;24.178;2023-02-28T14:38:31;94333.03;;;7.25;100.00
42335;BME280;27986;42.700;24.178;2023-02-28T14:40:58;94329.56;;;7.36;100.00
42335;BME280;27986;42.700;24.178;2023-02-28T14:43:27;94362.50;;;7.67;100.00
42335;BME280;27986;42.700;24.178;2023-02-28T14:45:58;94304.38;;;7.42;100.00
42335;BME280;27986;42.700;24.178;2023-02-28T14:48:25;94303.31;;;7.39;100.00
42335;BME280;27986;42.700;24.178;2023-02-28T14:50:55;94324.25;;;7.70;100.00
42335;BME280;27986;42.700;24.178;2023-02-28T14:53:24;94328.72;;;7.87;100.00
42335;BME280;27986;42.700;24.178;2023-02-28T14:55:50;94283.84;;;7.30;100.00
42335;BME280;27986;42.700;24.178;2023-02-28T14:58:27;94358.09;;;7.60;100.00
42335;BME280;27986;42.700;24.178;2023-02-28T15:00:55;94285.50;;;6.90;100.00
42335;BME280;27986;42.700;24.178;2023-02-28T15:06:05;94368.72;;;7.77;100.00
42335;BME280;27986;42.700;24.178;2023-02-28T15:08:32;94311.44;;;7.11;100.00
42335;BME280;27986;42.700;24.178;2023-02-28T15:11:17;94361.59;;;7.81;100.00
42335;BME280;27986;42.700;24.178;2023-02-28T15:13:51;94373.66;;;7.61;100.00
42335;BME280;27986;42.700;24.178;2023-02-28T15:16:20;94378.34;;;7.44;100.00
42335;BME280;27986;42.700;24.178;2023-02-28T15:21:16;94369.88;;;7.39;100.00
42335;BME280;27986;42.700;24.178;2023-02-28T15:23:46;94260.44;;;6.81;100.00
42335;BME280;27986;42.700;24.178;2023-02-28T15:26:20;94268.97;;;6.92;100.00
42335;BME280;27986;42.700;24.178;2023-02-28T15:28:50;94212.44;;;6.27;100.00
42335;BME280;27986;42.700;24.178;2023-02-28T15:31:25;94200.81;;;6.34;100.00
42335;BME280;27986;42.700;24.178;2023-02-28T15:34:04;94387.03;;;7.46;100.00
42335;BME280;27986;42.700;24.178;2023-02-28T15:36:36;94227.06;;;6.37;100.00
42335;BME280;27986;42.700;24.178;2023-02-28T15:39:23;94379.53;;;7.12;100.00
42335;BME280;27986;42.700;24.178;2023-02-28T15:42:12;94390.72;;;7.32;100.00
42335;BME280;27986;42.700;24.178;2023-02-28T15:44:38;94256.34;;;6.15;100.00
42335;BME280;27986;42.700;24.178;2023-02-28T15:47:21;94287.09;;;6.51;100.00
42335;BME280;27986;42.700;24.178;2023-02-28T15:50:09;94385.63;;;7.10;100.00
42335;BME280;27986;42.700;24.178;2023-02-28T15:52:44;94391.78;;;7.14;100.00
42335;BME280;27986;42.700;24.178;2023-02-28T15:57:50;94356.00;;;6.83;100.00
42335;BME280;27986;42.700;24.178;2023-02-28T16:00:37;94402.59;;;7.01;100.00
42335;BME280;27986;42.700;24.178;2023-02-28T16:03:24;94272.22;;;6.04;100.00
42335;BME280;27986;42.700;24.178;2023-02-28T16:08:49;94423.41;;;6.94;100.00
42335;BME280;27986;42.700;24.178;2023-02-28T16:11:16;94329.66;;;6.55;100.00
42335;BME280;27986;42.700;24.178;2023-02-28T16:13:42;94303.66;;;6.34;100.00
42335;BME280;27986;42.700;24.178;2023-02-28T16:16:14;94364.06;;;6.75;100.00